createdAt,value
2019-01-02T00:02:16.640Z,89.70
2019-01-02T00:04:47.800Z,83.50
2019-01-02T00:07:18.137Z,84.50
2019-01-02T00:09:48.634Z,83.50
2019-01-02T00:12:19.084Z,83.50
2019-01-02T00:14:49.502Z,81.30
2019-01-02T00:17:19.904Z,80.50
2019-01-02T00:19:51.013Z,79.50
2019-01-02T00:22:23.706Z,74.30
2019-01-02T00:24:54.151Z,72.20
2019-01-02T00:27:24.671Z,69.50
2019-01-02T00:29:55.385Z,70.00
2019-01-02T00:32:25.592Z,65.30
2019-01-02T00:34:55.767Z,69.20
2019-01-02T00:37:25.846Z,64.70
2019-01-02T00:39:56.027Z,75.50
2019-01-02T00:42:26.579Z,68.20
2019-01-02T00:44:56.784Z,99.90
2019-01-02T00:47:27.293Z,82.90
2019-01-02T00:49:57.853Z,68.00
2019-01-02T00:52:28.602Z,77.30
2019-01-02T00:54:58.685Z,67.90
2019-01-02T00:57:29.335Z,61.90
2019-01-02T00:59:59.670Z,63.10
2019-01-02T01:02:30.223Z,65.10
2019-01-02T01:05:01.348Z,63.10
2019-01-02T01:07:34.144Z,45.40
2019-01-02T01:10:04.654Z,48.20
2019-01-02T01:12:35.114Z,49.10
2019-01-02T01:15:06.082Z,46.10
2019-01-02T01:17:36.755Z,37.70
2019-01-02T01:20:07.837Z,29.50
2019-01-02T01:22:38.265Z,29.70
2019-01-02T01:25:08.337Z,25.80
2019-01-02T01:27:38.495Z,25.80
2019-01-02T01:30:09.695Z,20.20
2019-01-02T01:32:39.911Z,15.70
2019-01-02T01:35:12.394Z,12.90
2019-01-02T01:37:49.472Z,8.60
2019-01-02T01:40:19.625Z,7.60
2019-01-02T01:42:49.871Z,3.90
2019-01-02T01:45:20.350Z,4.80
2019-01-02T01:47:50.555Z,7.70
2019-01-02T01:50:21.072Z,9.70
2019-01-02T01:52:51.170Z,9.60
2019-01-02T01:55:21.420Z,4.50
2019-01-02T01:57:52.095Z,6.40
2019-01-02T02:00:24.017Z,3.60
2019-01-02T02:02:54.204Z,1.00
2019-01-02T02:05:24.749Z,1.00
2019-01-02T02:07:55.074Z,1.00
2019-01-02T02:10:25.119Z,5.50
2019-01-02T02:12:55.229Z,1.10
2019-01-02T02:15:25.299Z,1.00
2019-01-02T02:17:55.843Z,1.00
2019-01-02T02:20:26.145Z,1.00
2019-01-02T02:22:56.229Z,1.00
2019-01-02T02:25:26.717Z,1.00
2019-01-02T02:27:57.107Z,1.00
2019-01-02T02:30:27.215Z,1.00
2019-01-02T02:32:57.357Z,1.00
2019-01-02T02:35:27.413Z,1.00
2019-01-02T02:37:58.255Z,1.80
2019-01-02T02:40:28.332Z,5.00
2019-01-02T02:42:58.479Z,1.00
2019-01-02T02:45:28.893Z,1.00
2019-01-02T02:47:59.387Z,1.00
2019-01-02T02:50:29.917Z,1.00
2019-01-02T02:53:00.239Z,1.00
2019-01-02T02:55:31.703Z,1.00
2019-01-02T02:58:02.423Z,1.00
2019-01-02T03:00:32.505Z,1.00
2019-01-02T03:03:02.911Z,1.00
2019-01-02T03:05:33.298Z,1.00
2019-01-02T03:08:03.477Z,1.00
2019-01-02T03:10:33.830Z,1.00
2019-01-02T03:13:04.477Z,1.00
2019-01-02T03:15:34.732Z,1.00
2019-01-02T03:18:05.549Z,1.00
2019-01-02T03:20:35.688Z,1.00
2019-01-02T03:23:05.836Z,1.00
2019-01-02T03:25:36.807Z,1.00
2019-01-02T03:28:07.544Z,1.00
2019-01-02T03:30:38.307Z,1.00
2019-01-02T03:33:08.935Z,1.00
2019-01-02T03:35:38.977Z,1.00
2019-01-02T03:38:09.149Z,1.00
2019-01-02T03:51:24.976Z,6.40
2019-01-02T03:53:55.402Z,13.30
2019-01-02T03:56:25.590Z,17.50
2019-01-02T03:58:55.764Z,23.10
2019-01-02T04:01:25.968Z,25.40
2019-01-02T04:03:56.016Z,32.40
2019-01-02T04:06:26.357Z,33.90
2019-01-02T04:09:09.701Z,36.60
2019-01-02T04:11:52.600Z,39.30
2019-01-02T04:14:22.666Z,38.70
2019-01-02T04:16:52.748Z,38.20
2019-01-02T04:19:22.928Z,34.50
2019-01-02T04:21:53.074Z,31.60
2019-01-02T04:24:23.247Z,29.30
2019-01-02T04:26:53.541Z,29.10
2019-01-02T04:29:23.743Z,19.30
2019-01-02T04:31:53.810Z,9.10
2019-01-02T04:34:23.883Z,13.20
2019-01-02T04:36:53.928Z,16.00
2019-01-02T04:39:23.994Z,13.60
2019-01-02T04:51:59.607Z,13.00
2019-01-02T04:54:30.483Z,9.40
2019-01-02T04:57:00.817Z,11.90
2019-01-02T04:59:30.927Z,4.70
2019-01-02T05:02:01.098Z,2.80
2019-01-02T05:04:31.162Z,1.00
2019-01-02T05:07:01.216Z,1.00
2019-01-02T05:09:31.185Z,1.00
2019-01-02T05:12:01.293Z,1.00
2019-01-02T05:14:31.742Z,1.00
2019-01-02T05:17:03.103Z,1.00
2019-01-02T05:19:33.299Z,1.00
2019-01-02T05:22:03.551Z,1.00
2019-01-02T05:24:33.892Z,1.00
2019-01-02T05:27:04.090Z,4.30
2019-01-02T05:29:34.061Z,3.00
2019-01-02T05:32:04.094Z,4.70
2019-01-02T05:34:34.126Z,10.50
2019-01-02T05:37:04.232Z,20.60
2019-01-02T05:39:34.324Z,20.60
2019-01-02T05:42:04.425Z,13.80
2019-01-02T05:44:34.840Z,15.70
2019-01-02T05:47:05.158Z,13.00
2019-01-02T05:49:35.206Z,11.90
2019-01-02T05:52:05.449Z,16.10
2019-01-02T05:54:35.860Z,17.00
2019-01-02T05:57:06.558Z,18.00
2019-01-02T05:59:36.890Z,18.20
2019-01-02T06:02:07.171Z,18.00
2019-01-02T06:04:37.343Z,19.50
2019-01-02T06:07:07.518Z,19.60
2019-01-02T06:09:38.161Z,18.10
2019-01-02T06:12:08.266Z,31.10
2019-01-02T06:14:38.489Z,37.00
2019-01-02T06:17:08.638Z,41.30
2019-01-02T06:19:39.089Z,41.20
2019-01-02T06:22:09.568Z,40.40
2019-01-02T06:24:39.744Z,41.80
2019-01-02T06:27:10.366Z,41.30
2019-01-02T06:29:40.491Z,38.70
2019-01-02T06:32:10.605Z,36.60
2019-01-02T06:34:40.923Z,40.60
2019-01-02T06:37:11.359Z,36.70
2019-01-02T06:39:41.415Z,40.60
2019-01-02T06:42:11.521Z,37.30
2019-01-02T06:44:41.691Z,44.00
2019-01-02T06:47:11.836Z,39.10
2019-01-02T06:49:42.234Z,45.80
2019-01-02T06:52:12.680Z,45.10
2019-01-02T06:54:42.840Z,43.10
2019-01-02T06:57:13.200Z,43.10
2019-01-02T06:59:43.418Z,34.70
2019-01-02T07:02:13.585Z,28.90
2019-01-02T07:04:43.666Z,32.50
2019-01-02T07:07:13.791Z,27.50
2019-01-02T07:09:44.206Z,29.30
2019-01-02T07:12:14.531Z,25.00
2019-01-02T07:14:44.616Z,23.80
2019-01-02T07:17:14.804Z,21.10
2019-01-02T07:19:44.928Z,22.10
2019-01-02T07:22:15.321Z,23.90
2019-01-02T07:24:45.475Z,22.70
2019-01-02T07:27:15.595Z,22.80
2019-01-02T07:29:45.740Z,17.90
2019-01-02T07:32:15.809Z,13.10
2019-01-02T07:35:36.038Z,16.10
2019-01-02T07:38:28.667Z,14.80
2019-01-02T07:41:39.624Z,11.90
2019-01-02T07:44:28.030Z,12.00
2019-01-02T07:47:45.073Z,10.70
2019-01-02T07:50:53.139Z,12.10
2019-01-02T07:53:56.260Z,15.80
2019-01-02T07:56:59.677Z,11.50
2019-01-02T08:00:13.755Z,15.60
2019-01-02T08:03:26.895Z,33.60
2019-01-02T08:06:27.795Z,60.60
2019-01-02T08:09:37.199Z,53.70
2019-01-02T08:12:23.194Z,42.70
2019-01-02T08:15:23.714Z,37.00
2019-01-02T08:18:16.372Z,36.30
2019-01-02T08:21:39.700Z,38.00
2019-01-02T08:24:31.461Z,43.40
2019-01-02T08:27:50.631Z,42.40
2019-01-02T08:30:34.016Z,45.50
2019-01-02T08:33:40.618Z,33.60
2019-01-02T08:36:42.347Z,30.30
2019-01-02T08:39:53.578Z,27.10
2019-01-02T08:43:09.294Z,30.50
2019-01-02T08:46:10.144Z,29.10
2019-01-02T08:49:26.267Z,24.50
2019-01-02T08:52:25.038Z,27.80
2019-01-02T08:55:45.600Z,30.50
2019-01-02T08:59:09.467Z,26.20
2019-01-02T09:02:06.262Z,28.90
2019-01-02T09:05:10.673Z,26.70
2019-01-02T09:08:04.478Z,30.40
2019-01-02T09:11:19.711Z,28.60
2019-01-02T09:14:15.341Z,33.70
2019-01-02T09:17:49.274Z,29.50
2019-01-02T09:20:44.671Z,33.70
2019-01-02T09:23:51.939Z,40.30
2019-01-02T09:26:58.928Z,32.50
2019-01-02T09:30:14.603Z,27.50
2019-01-02T09:33:32.634Z,28.70
2019-01-02T09:36:36.760Z,26.50
2019-01-02T09:39:48.417Z,28.20
2019-01-02T09:43:24.558Z,32.00
2019-01-02T09:46:42.789Z,27.70
2019-01-02T09:49:55.789Z,31.70
2019-01-02T09:52:44.713Z,31.10
2019-01-02T09:55:50.082Z,31.30
2019-01-02T09:59:19.482Z,27.90
2019-01-02T10:02:30.486Z,26.80
2019-01-02T10:05:45.178Z,32.90
2019-01-02T10:08:41.563Z,26.70
2019-01-02T10:11:38.343Z,24.50
2019-01-02T10:14:40.933Z,23.90
2019-01-02T10:17:50.832Z,25.10
2019-01-02T10:21:11.517Z,17.50
2019-01-02T10:24:11.637Z,7.10
2019-01-02T10:27:18.470Z,7.10
2019-01-02T10:30:28.442Z,1.80
2019-01-02T10:33:30.617Z,1.00
2019-01-02T10:36:36.324Z,2.80
2019-01-02T10:39:41.755Z,2.40
2019-01-02T10:42:44.087Z,1.00
2019-01-02T10:45:37.406Z,1.00
2019-01-02T10:48:27.303Z,5.10
2019-01-02T10:51:26.425Z,9.30
2019-01-02T10:54:43.417Z,7.90
2019-01-02T10:57:54.677Z,10.10
2019-01-02T11:00:48.723Z,1.40
2019-01-02T11:03:47.206Z,7.70
2019-01-02T11:06:59.896Z,10.00
2019-01-02T11:10:22.914Z,9.40
2019-01-02T11:13:46.010Z,7.80
2019-01-02T11:17:03.292Z,1.00
2019-01-02T11:19:52.967Z,1.70
2019-01-02T11:22:58.434Z,1.20
2019-01-02T11:26:05.363Z,1.00
2019-01-02T11:29:15.054Z,1.00
2019-01-02T11:32:40.923Z,1.00
2019-01-02T11:36:07.093Z,1.00
2019-01-02T11:39:18.311Z,1.00
2019-01-02T11:42:18.261Z,1.00
2019-01-02T11:45:04.667Z,1.00
2019-01-02T11:47:34.757Z,1.00
2019-01-02T11:50:06.787Z,1.00
2019-01-02T11:52:36.834Z,1.00
2019-01-02T11:55:07.343Z,1.00
2019-01-02T11:57:37.687Z,1.00
2019-01-02T12:00:12.388Z,1.00
2019-01-02T12:02:42.621Z,1.00
2019-01-02T12:05:12.791Z,1.00
2019-01-02T12:07:42.881Z,1.00
2019-01-02T12:10:13.963Z,1.00
2019-01-02T12:12:44.109Z,1.00
2019-01-02T12:15:14.099Z,1.00
2019-01-02T12:17:44.188Z,1.00
2019-01-02T12:20:14.428Z,1.00
2019-01-02T12:22:44.864Z,1.00
2019-01-02T12:25:14.995Z,1.00
2019-01-02T12:27:47.146Z,1.00
2019-01-02T12:30:17.154Z,1.00
2019-01-02T12:32:47.256Z,1.00
2019-01-02T12:35:17.727Z,1.00
2019-01-02T12:37:47.828Z,1.00
2019-01-02T12:40:18.083Z,1.00
2019-01-02T12:42:48.159Z,1.00
2019-01-02T12:45:19.078Z,1.00
2019-01-02T12:47:50.159Z,1.00
2019-01-02T12:50:20.231Z,1.00
2019-01-02T12:52:50.392Z,1.00
2019-01-02T12:55:20.610Z,1.00
2019-01-02T12:57:51.005Z,1.00
2019-01-02T13:00:20.994Z,1.00
2019-01-02T13:03:17.047Z,1.00
2019-01-02T13:06:41.355Z,1.00
2019-01-02T13:09:42.144Z,1.00
2019-01-02T13:12:58.917Z,1.00
2019-01-02T13:16:03.686Z,1.00
2019-01-02T13:19:10.664Z,57.00
2019-01-02T13:22:10.531Z,52.90
2019-01-02T13:25:09.696Z,60.70
2019-01-02T13:28:01.481Z,62.70
2019-01-02T13:30:58.825Z,55.60
2019-01-02T13:34:13.054Z,87.70
2019-01-02T13:37:12.083Z,93.60
2019-01-02T13:40:21.133Z,95.00
2019-01-02T13:43:35.158Z,95.70
2019-01-02T13:46:43.674Z,94.80
2019-01-02T13:49:41.438Z,84.50
2019-01-02T13:52:11.512Z,67.90
2019-01-02T13:54:41.597Z,61.50
2019-01-02T13:57:11.766Z,50.10
2019-01-02T13:59:42.198Z,38.60
2019-01-02T14:02:12.374Z,45.20
2019-01-02T14:04:45.178Z,90.20
2019-01-02T14:07:15.364Z,99.90
2019-01-02T14:09:45.526Z,99.90
2019-01-02T14:12:15.734Z,99.90
2019-01-02T14:14:46.144Z,99.90
2019-01-02T14:17:17.460Z,99.90
2019-01-02T14:19:47.595Z,99.90
2019-01-02T14:22:17.668Z,99.90
2019-01-02T14:24:47.770Z,99.90
2019-01-02T14:27:18.195Z,99.90
2019-01-02T14:29:48.305Z,99.40
2019-01-02T14:32:18.423Z,99.90
2019-01-02T14:34:48.468Z,95.90
2019-01-02T14:37:18.546Z,97.90
2019-01-02T14:39:48.616Z,97.00
2019-01-02T14:42:18.721Z,90.20
2019-01-02T14:44:48.869Z,70.10
2019-01-02T14:47:19.387Z,71.10
2019-01-02T14:49:49.483Z,83.00
2019-01-02T14:52:19.626Z,84.10
2019-01-02T14:54:49.785Z,87.60
2019-01-02T14:57:19.966Z,90.90
2019-01-02T14:59:50.375Z,58.30
2019-01-02T15:02:20.662Z,62.20
2019-01-02T15:04:50.947Z,75.40
2019-01-02T15:07:21.316Z,76.90
2019-01-02T15:09:51.743Z,12.50
2019-01-02T15:12:21.862Z,16.90
2019-01-02T15:14:51.976Z,2.10
2019-01-02T15:17:22.400Z,7.00
2019-01-02T15:19:52.690Z,1.00
2019-01-02T15:22:23.156Z,1.00
2019-01-02T15:24:53.632Z,1.00
2019-01-02T15:27:23.865Z,8.40
2019-01-02T15:29:54.033Z,15.60
2019-01-02T15:32:24.153Z,23.80
2019-01-02T15:34:54.505Z,24.50
2019-01-02T15:37:24.804Z,19.40
2019-01-02T15:39:54.875Z,12.40
2019-01-02T15:42:25.111Z,5.00
2019-01-02T15:44:55.575Z,4.20
2019-01-02T15:47:25.720Z,1.00
2019-01-02T15:49:55.846Z,1.00
2019-01-02T15:52:26.091Z,15.40
2019-01-02T15:54:56.240Z,21.30
2019-01-02T15:57:26.772Z,42.00
2019-01-02T15:59:56.926Z,53.10
2019-01-02T16:02:26.980Z,65.70
2019-01-02T16:04:57.202Z,60.40
2019-01-02T16:07:27.545Z,67.60
2019-01-02T16:09:57.814Z,71.60
2019-01-02T16:12:27.989Z,24.20
2019-01-02T16:14:58.083Z,1.00
2019-01-02T16:17:28.348Z,1.00
2019-01-02T16:19:58.757Z,1.00
2019-01-02T16:22:28.963Z,1.00
2019-01-02T16:24:59.121Z,1.00
2019-01-02T16:27:29.354Z,2.70
2019-01-02T16:29:59.767Z,7.80
2019-01-02T16:32:29.864Z,13.00
2019-01-02T16:35:00.187Z,15.10
2019-01-02T16:37:30.350Z,18.30
2019-01-02T16:40:00.782Z,20.70
2019-01-02T16:42:30.946Z,24.00
2019-01-02T16:45:01.155Z,25.80
2019-01-02T16:47:31.500Z,27.90
2019-01-02T16:50:01.869Z,29.10
2019-01-02T16:52:31.978Z,29.80
2019-01-02T16:55:02.202Z,30.80
2019-01-02T16:57:32.308Z,30.60
2019-01-02T17:00:02.456Z,32.20
2019-01-02T17:02:32.830Z,32.10
2019-01-02T17:05:03.278Z,32.20
2019-01-02T17:07:33.498Z,33.30
2019-01-02T17:10:04.255Z,32.00
2019-01-02T17:12:34.387Z,31.90
2019-01-02T17:15:04.475Z,31.90
2019-01-02T17:17:34.825Z,31.80
2019-01-02T17:20:06.750Z,30.60
2019-01-02T17:22:37.037Z,28.10
2019-01-02T17:25:08.229Z,27.70
2019-01-02T17:27:38.447Z,27.50
2019-01-02T17:30:08.893Z,25.20
2019-01-02T17:32:39.136Z,24.40
2019-01-02T17:35:09.279Z,23.70
2019-01-02T17:37:39.397Z,22.70
2019-01-02T17:40:09.830Z,17.60
2019-01-02T17:42:40.142Z,14.00
2019-01-02T17:45:10.422Z,11.30
2019-01-02T17:47:40.520Z,7.60
2019-01-02T17:50:11.443Z,4.80
2019-01-02T17:52:42.576Z,3.30
2019-01-02T17:55:12.751Z,2.50
2019-01-02T17:57:43.208Z,1.00
2019-01-02T18:00:13.680Z,1.00
2019-01-02T18:02:44.065Z,1.00
2019-01-02T18:05:14.312Z,1.00
2019-01-02T18:07:44.705Z,1.00
2019-01-02T18:10:15.175Z,1.00
2019-01-02T18:12:45.290Z,1.00
2019-01-02T18:15:15.483Z,1.00
2019-01-02T18:17:45.644Z,1.00
2019-01-02T18:20:15.830Z,1.00
2019-01-02T18:22:46.269Z,1.00
2019-01-02T18:25:16.379Z,1.00
2019-01-02T18:27:46.626Z,1.00
2019-01-02T18:30:16.719Z,1.00
2019-01-02T18:32:46.870Z,1.00
2019-01-02T18:35:17.328Z,1.00
2019-01-02T18:37:47.482Z,1.00
2019-01-02T18:40:17.713Z,1.00
2019-01-02T18:42:47.896Z,1.00
2019-01-02T18:45:18.253Z,1.00
2019-01-02T18:47:48.688Z,1.00
2019-01-02T18:50:18.787Z,1.00
2019-01-02T18:52:48.956Z,1.00
2019-01-02T18:55:19.412Z,1.00
2019-01-02T18:57:49.540Z,1.00
2019-01-02T19:00:19.527Z,1.00
2019-01-02T19:02:49.662Z,1.00
2019-01-02T19:05:19.815Z,1.00
2019-01-02T19:07:49.969Z,1.00
2019-01-02T19:10:20.505Z,2.20
2019-01-02T19:12:51.562Z,4.20
2019-01-02T19:15:21.554Z,5.10
2019-01-02T19:17:51.649Z,3.60
2019-01-02T19:20:21.843Z,6.70
2019-01-02T19:22:52.058Z,10.50
2019-01-02T19:25:22.459Z,14.20
2019-01-02T19:27:52.672Z,11.30
2019-01-02T19:30:22.714Z,12.30
2019-01-02T19:32:52.929Z,12.40
2019-01-02T19:35:23.022Z,11.70
2019-01-02T19:37:53.573Z,12.60
2019-01-02T19:40:23.763Z,10.30
2019-01-02T19:42:53.941Z,8.20
2019-01-02T19:45:24.130Z,6.70
2019-01-02T19:47:54.584Z,6.50
2019-01-02T19:50:25.011Z,5.30
2019-01-02T19:52:55.244Z,6.60
2019-01-02T19:55:25.711Z,5.80
2019-01-02T19:57:55.814Z,2.20
2019-01-02T20:00:25.845Z,1.80
2019-01-02T20:02:56.004Z,1.00
2019-01-02T20:05:26.122Z,1.00
2019-01-02T20:07:56.348Z,1.00
2019-01-02T20:10:26.891Z,1.00
2019-01-02T20:12:57.106Z,1.00
2019-01-02T20:15:27.267Z,1.00
2019-01-02T20:17:57.714Z,1.00
2019-01-02T20:20:27.893Z,1.00
2019-01-02T20:22:58.805Z,1.00
2019-01-02T20:25:28.934Z,1.00
2019-01-02T20:27:59.132Z,1.00
2019-01-02T20:30:29.253Z,1.00
2019-01-02T20:32:59.441Z,1.00
2019-01-02T20:35:29.815Z,1.00
2019-01-02T20:37:59.929Z,1.00
2019-01-02T20:40:30.131Z,1.00
2019-01-02T20:43:00.475Z,1.00
2019-01-02T20:45:30.772Z,1.00
2019-01-02T20:48:01.282Z,1.00
2019-01-02T20:50:31.396Z,1.00
2019-01-02T20:53:01.804Z,1.00
2019-01-02T20:55:32.042Z,1.00
2019-01-02T20:58:02.234Z,1.00
2019-01-02T21:00:32.353Z,1.00
2019-01-02T21:03:02.571Z,1.00
2019-01-02T21:05:33.008Z,1.00
2019-01-02T21:08:03.126Z,1.00
2019-01-02T21:10:33.318Z,1.00
2019-01-02T21:13:03.585Z,1.00
2019-01-02T21:15:35.062Z,1.00
2019-01-02T21:18:05.243Z,1.00
2019-01-02T21:20:35.438Z,1.00
2019-01-02T21:23:05.619Z,1.00
2019-01-02T21:25:35.978Z,1.00
2019-01-02T21:28:07.445Z,1.00
2019-01-02T21:30:37.534Z,1.00
2019-01-02T21:33:07.743Z,1.00
2019-01-02T21:35:38.151Z,1.00
2019-01-02T21:38:08.428Z,1.00
2019-01-02T21:40:38.610Z,1.00
2019-01-02T21:43:09.002Z,1.00
2019-01-02T21:45:39.141Z,1.00
2019-01-02T21:48:09.728Z,1.00
2019-01-02T21:50:40.141Z,1.00
2019-01-02T21:53:10.698Z,1.00
2019-01-02T21:55:41.149Z,1.00
2019-01-02T21:58:11.341Z,1.00
2019-01-02T22:00:43.234Z,1.00
2019-01-02T22:03:13.347Z,1.00
2019-01-02T22:05:43.907Z,1.00
2019-01-02T22:08:14.812Z,1.00
2019-01-02T22:10:45.452Z,1.00
2019-01-02T22:13:15.643Z,1.00
2019-01-02T22:15:45.704Z,1.00
2019-01-02T22:18:16.210Z,1.00
2019-01-02T22:20:46.353Z,1.00
2019-01-02T22:23:16.651Z,1.00
2019-01-02T22:25:46.982Z,1.00
2019-01-02T22:28:17.494Z,1.00
2019-01-02T22:30:47.622Z,1.00
2019-01-02T22:33:17.915Z,1.00
2019-01-02T22:35:48.305Z,1.00
2019-01-02T22:38:18.715Z,1.00
2019-01-02T22:40:49.181Z,1.00
2019-01-02T22:43:19.546Z,1.00
2019-01-02T22:45:49.484Z,1.00
2019-01-02T22:48:35.448Z,1.00
2019-01-02T22:51:05.631Z,1.00
2019-01-02T22:53:35.827Z,1.00
2019-01-02T22:56:06.823Z,1.00
2019-01-02T22:58:37.408Z,1.00
2019-01-02T23:01:16.178Z,1.00
2019-01-02T23:04:11.765Z,1.00
2019-01-02T23:06:59.372Z,1.00
2019-01-02T23:09:48.756Z,1.00
2019-01-02T23:12:45.178Z,1.00
2019-01-02T23:15:51.631Z,1.00
2019-01-02T23:18:43.719Z,1.00
2019-01-02T23:21:37.213Z,1.00
2019-01-02T23:24:25.190Z,1.00
2019-01-02T23:27:13.176Z,1.00
2019-01-02T23:30:05.575Z,1.00
2019-01-02T23:33:04.176Z,1.00
2019-01-02T23:35:56.625Z,1.00
2019-01-02T23:38:44.467Z,1.00
2019-01-02T23:41:45.705Z,1.00
2019-01-02T23:44:33.627Z,1.00
2019-01-02T23:47:21.470Z,1.00
2019-01-02T23:50:08.881Z,1.00
2019-01-02T23:52:56.434Z,1.00
2019-01-02T23:55:48.548Z,1.00
2019-01-02T23:58:36.342Z,1.00
